Change the Weather History Date:

Tuesday, November 12, 2013

  Actual Average Record
Temperature  
Mean Temperature 60 °F -  
Max Temperature 71 °F 67 °F 82 °F (1989)
Min Temperature 50 °F 40 °F 28 °F (1992)
Degree Days  
Heating Degree Days 4    
Growing Degree Days 10 (Base 50)    
Moisture  
Dew Point 14 °F    
Average Humidity 17    
Maximum Humidity 24    
Minimum Humidity 9    
Precipitation  
Precipitation 0.00 in - - ()
Sea Level Pressure  
Sea Level Pressure 30.25 in    
Wind  
Wind Speed 3 mph (NNW)    
Max Wind Speed 8 mph    
Max Gust Speed -    
Visibility 10 miles    
Events      
Averages and records for this station are not official NWS values.
T = Trace of Precipitation, MM = Missing Value Source: NWS Daily Summary

Daily Weather History Graph

Daily Weather History Graph

Search for Another Location

Airport or City:

Trip Planner

Search our weather history database for the weather conditions in past years. The results will help you decide how hot, cold, wet, or windy it might be!

Date:

Astronomy

Nov. 12, 2013 Rise Set
Actual Time 6:24 AM PST 4:48 PM PST
Civil Twilight 5:57 AM PST 5:15 PM PST
Nautical Twilight 5:27 AM PST 5:45 PM PST
Astronomical Twilight 4:57 AM PST 6:15 PM PST
Moon 1:55 PM PST (11/12) 1:30 AM PST (11/12)
Length of Visible Light 11h 17m
Length of Day
10h 24m
Waxing Gibbous, 77% of the Moon is Illuminated
Nov 12
Waxing Gibbous
Nov 17
Full
Nov 25
Last Quarter
Dec 2
New
Dec 9
First Quarter

Hourly Weather History & Observations

Time (PST) Temp. Dew Point Humidity Pressure Visibility Wind Dir Wind Speed Gust Speed Precip Events Conditions
12:15 AM 57.2 °F 15.8 °F 20% 30.24 in 10.0 mi Calm Calm - N/A   Clear
12:35 AM 57.2 °F 15.8 °F 20% 30.24 in 10.0 mi Calm Calm - N/A   Clear
12:55 AM 53.6 °F 15.8 °F 22% 30.24 in 10.0 mi NW 4.6 mph - N/A   Clear
1:15 AM 53.6 °F 15.8 °F 22% 30.24 in 10.0 mi NNW 4.6 mph - N/A   Clear
1:35 AM 53.6 °F 15.8 °F 22% 30.24 in 10.0 mi NNW 4.6 mph - N/A   Clear
1:55 AM 51.8 °F 15.8 °F 24% 30.24 in 10.0 mi NNW 6.9 mph - N/A   Clear
2:15 AM 51.8 °F 15.8 °F 24% 30.23 in 10.0 mi NNW 4.6 mph - N/A   Clear
2:35 AM 51.8 °F 15.8 °F 24% 30.23 in 10.0 mi NNW 4.6 mph - N/A   Clear
2:55 AM 53.6 °F 15.8 °F 22% 30.24 in 10.0 mi Calm Calm - N/A   Clear
3:15 AM 51.8 °F 15.8 °F 24% 30.24 in 10.0 mi NW 5.8 mph - N/A   Clear
3:35 AM 50.0 °F 14.0 °F 24% 30.25 in 10.0 mi NW 5.8 mph - N/A   Clear
3:55 AM 50.0 °F 14.0 °F 24% 30.25 in 10.0 mi NW 6.9 mph - N/A   Clear
4:15 AM 53.6 °F 15.8 °F 22% 30.24 in 10.0 mi NNW 5.8 mph - N/A   Clear
4:35 AM 53.6 °F 15.8 °F 22% 30.25 in 10.0 mi NNW 5.8 mph - N/A   Clear
4:55 AM 53.6 °F 15.8 °F 22% 30.25 in 10.0 mi North 4.6 mph - N/A   Clear
5:15 AM 53.6 °F 15.8 °F 22% 30.25 in 10.0 mi North 3.5 mph - N/A   Clear
5:35 AM 53.6 °F 15.8 °F 22% 30.25 in 10.0 mi Calm Calm - N/A   Clear
5:55 AM 53.6 °F 15.8 °F 22% 30.26 in 10.0 mi North 3.5 mph - N/A   Clear
6:15 AM 53.6 °F 15.8 °F 22% 30.26 in 10.0 mi Calm Calm - N/A   Clear
6:35 AM 53.6 °F 15.8 °F 22% 30.27 in 5.0 mi Calm Calm - N/A   Clear
6:55 AM 53.6 °F 15.8 °F 22% 30.28 in 9.0 mi Calm Calm - N/A   Clear
7:15 AM 53.6 °F 15.8 °F 22% 30.28 in 10.0 mi Calm Calm - N/A   Clear
7:35 AM 55.4 °F 15.8 °F 21% 30.29 in 10.0 mi Calm Calm - N/A   Clear
7:55 AM 57.2 °F 15.8 °F 20% 30.30 in 10.0 mi Calm Calm - N/A   Clear
8:15 AM 59.0 °F 15.8 °F 19% 30.30 in 10.0 mi Calm Calm - N/A   Clear
8:35 AM 62.6 °F 15.8 °F 16% 30.31 in 10.0 mi Calm Calm - N/A   Clear
8:55 AM 64.4 °F 15.8 °F 15% 30.31 in 10.0 mi Calm Calm - N/A   Clear
9:15 AM 64.4 °F 15.8 °F 15% 30.31 in 10.0 mi Calm Calm - N/A   Clear
9:35 AM 66.2 °F 15.8 °F 14% 30.31 in 10.0 mi Calm Calm - N/A   Clear
9:55 AM 66.2 °F 15.8 °F 14% 30.31 in 10.0 mi Calm Calm - N/A   Clear
10:15 AM 68.0 °F 15.8 °F 13% 30.31 in 10.0 mi Calm Calm - N/A   Clear
10:35 AM 68.0 °F 15.8 °F 13% 30.30 in 10.0 mi Calm Calm - N/A   Clear
10:55 AM 68.0 °F 15.8 °F 13% 30.29 in 10.0 mi Calm Calm - N/A   Clear
11:15 AM 68.0 °F 14.0 °F 12% 30.28 in 10.0 mi Calm Calm - N/A   Clear
11:35 AM 68.0 °F 12.2 °F 12% 30.29 in 10.0 mi Calm Calm - N/A   Clear
11:55 AM 71.6 °F 12.2 °F 10% 30.28 in 10.0 mi Calm Calm - N/A   Clear
12:15 PM 71.6 °F 12.2 °F 10% 30.27 in 10.0 mi Calm Calm - N/A   Clear
12:35 PM 71.6 °F 10.4 °F 9% 30.25 in 10.0 mi East 5.8 mph - N/A   Clear
12:55 PM 71.6 °F 10.4 °F 9% 30.24 in 10.0 mi ESE 5.8 mph - N/A   Clear
1:15 PM 71.6 °F 12.2 °F 10% 30.24 in 10.0 mi Calm Calm - N/A   Clear
1:35 PM 71.6 °F 14.0 °F 11% 30.23 in 10.0 mi Calm Calm - N/A   Clear
1:55 PM 71.6 °F 14.0 °F 11% 30.24 in 10.0 mi Calm Calm - N/A   Clear
2:15 PM 71.6 °F 14.0 °F 11% 30.24 in 10.0 mi Calm Calm - N/A   Clear
2:35 PM 71.6 °F 12.2 °F 10% 30.24 in 10.0 mi Calm Calm - N/A   Clear
2:55 PM 69.8 °F 14.0 °F 12% 30.24 in 10.0 mi Calm Calm - N/A   Clear
3:15 PM 69.8 °F 14.0 °F 12% 30.23 in 10.0 mi Calm Calm - N/A   Clear
3:35 PM 69.8 °F 14.0 °F 12% 30.23 in 10.0 mi Calm Calm - N/A   Clear
3:55 PM 69.8 °F 15.8 °F 13% 30.23 in 10.0 mi Calm Calm - N/A   Clear
4:15 PM 69.8 °F 15.8 °F 13% 30.23 in 10.0 mi Calm Calm - N/A   Clear
4:35 PM 68.0 °F 15.8 °F 13% 30.23 in 10.0 mi Calm Calm - N/A   Clear
4:55 PM 68.0 °F 15.8 °F 13% 30.23 in 10.0 mi Calm Calm - N/A   Clear
5:15 PM 66.2 °F 15.8 °F 14% 30.23 in 10.0 mi Calm Calm - N/A   Clear
5:35 PM 60.8 °F 14.0 °F 16% 30.23 in 10.0 mi Calm Calm - N/A   Scattered Clouds
5:55 PM 59.0 °F 12.2 °F 16% 30.23 in 10.0 mi NW 5.8 mph - N/A   Scattered Clouds
6:15 PM 57.2 °F 10.4 °F 16% 30.23 in 10.0 mi NNW 6.9 mph - N/A   Clear
6:35 PM 57.2 °F 10.4 °F 16% 30.23 in 10.0 mi North 5.8 mph - N/A   Partly Cloudy
6:55 PM 57.2 °F 12.2 °F 17% 30.24 in 10.0 mi NNW 5.8 mph - N/A   Clear
7:15 PM 57.2 °F 12.2 °F 17% 30.24 in 10.0 mi North 5.8 mph - N/A   Clear
7:35 PM 55.4 °F 12.2 °F 18% 30.25 in 10.0 mi NW 6.9 mph - N/A   Clear
7:55 PM 55.4 °F 10.4 °F 17% 30.25 in 10.0 mi NW 8.1 mph - N/A   Clear
8:15 PM 53.6 °F 10.4 °F 18% 30.25 in 10.0 mi NW 5.8 mph - N/A   Clear
8:35 PM 53.6 °F 10.4 °F 18% 30.26 in 10.0 mi NW 5.8 mph - N/A   Clear
8:55 PM 53.6 °F 12.2 °F 19% 30.26 in 10.0 mi NW 5.8 mph - N/A   Clear
9:15 PM 53.6 °F 14.0 °F 21% 30.25 in 10.0 mi NW 6.9 mph - N/A   Clear
9:35 PM 53.6 °F 14.0 °F 21% 30.25 in 10.0 mi NW 8.1 mph - N/A   Scattered Clouds
9:55 PM 53.6 °F 14.0 °F 21% 30.25 in 10.0 mi NW 5.8 mph - N/A   Partly Cloudy
10:15 PM 53.6 °F 14.0 °F 21% 30.25 in 10.0 mi WNW 3.5 mph - N/A   Partly Cloudy
10:35 PM 55.4 °F 14.0 °F 20% 30.25 in 10.0 mi NW 4.6 mph - N/A   Clear
10:55 PM 53.6 °F 15.8 °F 22% 30.24 in 10.0 mi NW 6.9 mph - N/A   Clear
11:15 PM 55.4 °F 15.8 °F 21% 30.24 in 10.0 mi NW 5.8 mph - N/A   Clear
11:35 PM 53.6 °F 14.0 °F 21% 30.23 in 10.0 mi NW 5.8 mph - N/A   Clear
11:55 PM 53.6 °F 15.8 °F 22% 30.23 in 10.0 mi NNW 8.1 mph - N/A   Clear